createdAt,value
2018-02-15T00:00:50.330Z,89.47
2018-02-15T00:03:17.942Z,89.74
2018-02-15T00:05:45.401Z,89.86
2018-02-15T00:08:12.859Z,89.71
2018-02-15T00:10:40.358Z,89.81
2018-02-15T00:13:07.817Z,90.18
2018-02-15T00:15:35.310Z,90.45
2018-02-15T00:18:02.777Z,90.50
2018-02-15T00:20:30.278Z,90.16
2018-02-15T00:22:57.742Z,89.49
2018-02-15T00:25:25.209Z,89.17
2018-02-15T00:27:52.680Z,89.66
2018-02-15T00:30:20.154Z,90.04
2018-02-15T00:32:47.644Z,90.03
2018-02-15T00:35:15.103Z,89.65
2018-02-15T00:37:42.561Z,89.37
2018-02-15T00:40:10.030Z,89.10
2018-02-15T00:42:37.499Z,88.78
2018-02-15T00:45:04.986Z,88.77
2018-02-15T00:47:32.518Z,89.05
2018-02-15T00:49:59.978Z,89.36
2018-02-15T00:52:27.473Z,89.34
2018-02-15T00:54:54.936Z,89.12
2018-02-15T00:57:22.410Z,89.08
2018-02-15T00:59:49.885Z,89.12
2018-02-15T01:02:17.358Z,89.15
2018-02-15T01:04:44.842Z,89.33
2018-02-15T01:07:12.328Z,89.23
2018-02-15T01:09:39.789Z,89.17
2018-02-15T01:12:07.274Z,89.63
2018-02-15T01:14:34.775Z,89.86
2018-02-15T01:17:02.230Z,89.99
2018-02-15T01:19:29.733Z,89.76
2018-02-15T01:21:57.193Z,89.39
2018-02-15T01:24:24.651Z,89.33
2018-02-15T01:26:52.137Z,89.73
2018-02-15T01:29:19.605Z,89.95
2018-02-15T01:31:47.062Z,90.03
2018-02-15T01:34:14.545Z,90.01
2018-02-15T01:36:42.016Z,90.02
2018-02-15T01:39:09.477Z,90.35
2018-02-15T01:41:36.954Z,90.66
2018-02-15T01:44:04.441Z,90.65
2018-02-15T01:46:31.910Z,90.33
2018-02-15T01:48:59.397Z,89.72
2018-02-15T01:51:26.882Z,89.32
2018-02-15T01:53:54.351Z,89.06
2018-02-15T01:56:21.820Z,89.27
2018-02-15T01:58:49.301Z,89.31
2018-02-15T02:01:16.758Z,89.38
2018-02-15T02:03:44.254Z,89.44
2018-02-15T02:06:11.758Z,89.62
2018-02-15T02:08:39.231Z,89.63
2018-02-15T02:11:06.693Z,89.30
2018-02-15T02:13:34.194Z,88.99
2018-02-15T02:16:01.660Z,88.54
2018-02-15T02:18:29.129Z,88.61
2018-02-15T02:20:56.622Z,88.89
2018-02-15T02:23:24.105Z,89.06
2018-02-15T02:25:51.559Z,88.81
2018-02-15T02:28:19.021Z,89.04
2018-02-15T02:30:46.544Z,89.17
2018-02-15T02:33:14.018Z,88.94
2018-02-15T02:35:41.491Z,89.10
2018-02-15T02:38:08.981Z,89.24
2018-02-15T02:40:36.450Z,89.13
2018-02-15T02:43:03.909Z,89.23
2018-02-15T02:45:31.406Z,89.53
2018-02-15T02:47:58.875Z,89.62
2018-02-15T02:50:26.338Z,89.59
2018-02-15T02:52:53.802Z,89.66
2018-02-15T02:55:21.308Z,89.62
2018-02-15T02:57:48.770Z,89.57
2018-02-15T03:00:16.238Z,89.45
2018-02-15T03:02:43.723Z,89.52
2018-02-15T03:05:11.188Z,89.69
2018-02-15T03:07:38.659Z,89.38
2018-02-15T03:10:06.198Z,89.23
2018-02-15T03:12:33.667Z,89.10
2018-02-15T03:15:01.121Z,89.53
2018-02-15T03:17:28.613Z,89.92
2018-02-15T03:19:56.074Z,90.22
2018-02-15T03:22:23.581Z,90.34
2018-02-15T03:24:51.056Z,90.11
2018-02-15T03:27:18.513Z,89.91
2018-02-15T03:29:46.018Z,90.18
2018-02-15T03:32:13.470Z,90.24
2018-02-15T03:34:40.965Z,90.03
2018-02-15T03:37:08.463Z,89.54
2018-02-15T03:39:35.929Z,89.18
2018-02-15T03:42:03.402Z,88.98
2018-02-15T03:44:30.910Z,88.96
2018-02-15T03:46:58.462Z,88.85
2018-02-15T03:49:26.018Z,89.06
2018-02-15T03:51:53.517Z,89.55
2018-02-15T03:54:20.989Z,89.85
2018-02-15T03:56:48.455Z,89.87
2018-02-15T03:59:15.943Z,90.14
2018-02-15T04:01:43.411Z,90.15
2018-02-15T04:04:10.883Z,89.96
2018-02-15T04:06:38.371Z,89.79
2018-02-15T04:09:05.838Z,89.43
2018-02-15T04:11:33.306Z,89.27
2018-02-15T04:14:00.800Z,89.28
2018-02-15T04:16:28.258Z,89.06
2018-02-15T04:18:55.734Z,88.89
2018-02-15T04:21:23.215Z,88.84
2018-02-15T04:23:50.723Z,88.89
2018-02-15T04:26:18.186Z,88.60
2018-02-15T04:28:45.659Z,88.27
2018-02-15T04:31:13.194Z,88.57
2018-02-15T04:33:40.685Z,88.67
2018-02-15T04:36:08.153Z,88.73
2018-02-15T04:38:35.618Z,88.62
2018-02-15T04:41:03.177Z,88.58
2018-02-15T04:43:30.650Z,88.22
2018-02-15T04:45:58.157Z,87.96
2018-02-15T04:48:25.705Z,88.40
2018-02-15T04:50:53.238Z,88.46
2018-02-15T04:53:20.728Z,88.53
2018-02-15T04:55:48.224Z,89.13
2018-02-15T04:58:15.687Z,89.33
2018-02-15T05:00:43.192Z,88.99
2018-02-15T05:03:10.678Z,88.97
2018-02-15T05:05:38.152Z,88.97
2018-02-15T05:08:05.634Z,88.91
2018-02-15T05:10:33.225Z,88.78
2018-02-15T05:13:00.789Z,88.74
2018-02-15T05:15:28.256Z,88.83
2018-02-15T05:17:55.741Z,88.97
2018-02-15T05:20:23.218Z,88.92
2018-02-15T05:22:50.695Z,88.88
2018-02-15T05:25:18.178Z,88.75
2018-02-15T05:27:45.644Z,88.84
2018-02-15T05:30:13.109Z,88.88
2018-02-15T05:32:41.566Z,88.65
2018-02-15T05:35:09.024Z,88.15
2018-02-15T05:37:36.554Z,88.37
2018-02-15T05:40:04.030Z,88.38
2018-02-15T05:42:31.506Z,88.32
2018-02-15T05:44:59.051Z,88.29
2018-02-15T05:47:26.505Z,88.06
2018-02-15T05:49:53.970Z,87.71
2018-02-15T05:52:21.459Z,87.51
2018-02-15T05:54:48.924Z,87.76
2018-02-15T05:57:16.404Z,87.90
2018-02-15T05:59:43.903Z,88.00
2018-02-15T06:02:13.688Z,88.48
2018-02-15T06:04:41.147Z,88.30
2018-02-15T06:07:08.676Z,88.24
2018-02-15T06:09:36.162Z,88.02
2018-02-15T06:12:03.685Z,87.92
2018-02-15T06:14:31.195Z,88.03
2018-02-15T06:16:58.718Z,88.16
2018-02-15T06:19:26.228Z,88.57
2018-02-15T06:21:53.752Z,88.47
2018-02-15T06:24:21.258Z,88.47
2018-02-15T06:26:48.758Z,88.47
2018-02-15T06:29:16.301Z,88.59
2018-02-15T06:31:43.793Z,88.68
2018-02-15T06:34:11.298Z,88.54
2018-02-15T06:36:38.840Z,88.28
2018-02-15T06:39:06.421Z,88.04
2018-02-15T06:41:33.914Z,88.29
2018-02-15T06:44:01.446Z,88.16
2018-02-15T06:46:28.944Z,88.42
2018-02-15T06:48:56.452Z,88.82
2018-02-15T06:51:24.009Z,88.85
2018-02-15T06:53:51.514Z,89.00
2018-02-15T06:56:19.852Z,89.13
2018-02-15T06:58:47.391Z,89.16
2018-02-15T07:01:14.906Z,89.10
2018-02-15T07:03:42.404Z,89.34
2018-02-15T07:06:09.919Z,89.35
2018-02-15T07:08:37.459Z,89.31
2018-02-15T07:11:04.963Z,88.96
2018-02-15T07:13:32.495Z,88.51
2018-02-15T07:16:00.029Z,88.11
2018-02-15T07:18:27.539Z,87.99
2018-02-15T07:20:55.049Z,88.51
2018-02-15T07:23:22.608Z,88.53
2018-02-15T07:25:50.104Z,88.26
2018-02-15T07:28:17.607Z,87.88
2018-02-15T07:30:45.128Z,87.68
2018-02-15T07:33:12.618Z,87.81
2018-02-15T07:35:40.205Z,87.92
2018-02-15T07:38:07.710Z,87.89
2018-02-15T07:40:35.205Z,87.63
2018-02-15T07:43:02.720Z,87.63
2018-02-15T07:45:30.333Z,87.40
2018-02-15T07:47:57.837Z,86.52
2018-02-15T07:50:25.414Z,86.47
2018-02-15T07:52:52.946Z,86.25
2018-02-15T07:55:20.443Z,86.18
2018-02-15T07:57:47.941Z,85.70
2018-02-15T08:00:15.455Z,85.60
2018-02-15T08:02:42.966Z,85.93
2018-02-15T08:05:10.455Z,85.30
2018-02-15T08:07:37.964Z,85.25
2018-02-15T08:10:05.524Z,84.90
2018-02-15T08:12:33.048Z,85.17
2018-02-15T08:15:00.547Z,85.87
2018-02-15T08:17:28.046Z,85.66
2018-02-15T08:19:55.567Z,85.01
2018-02-15T08:22:23.093Z,85.25
2018-02-15T08:24:50.594Z,84.90
2018-02-15T08:27:18.090Z,84.34
2018-02-15T08:29:45.619Z,84.46
2018-02-15T08:32:13.133Z,84.04
2018-02-15T08:34:40.647Z,83.60
2018-02-15T08:37:08.148Z,83.92
2018-02-15T08:39:35.642Z,83.37
2018-02-15T08:42:03.155Z,82.73
2018-02-15T08:44:30.668Z,83.02
2018-02-15T08:46:58.174Z,82.53
2018-02-15T08:49:25.666Z,83.33
2018-02-15T08:51:53.189Z,83.81
2018-02-15T08:54:20.688Z,83.75
2018-02-15T08:56:48.199Z,83.72
2018-02-15T08:59:15.750Z,83.85
2018-02-15T09:01:43.260Z,83.68
2018-02-15T09:04:10.798Z,82.87
2018-02-15T09:06:38.326Z,82.49
2018-02-15T09:09:05.822Z,82.08
2018-02-15T09:11:33.367Z,81.23
2018-02-15T09:14:00.880Z,81.25
2018-02-15T09:16:28.386Z,80.93
2018-02-15T09:18:55.952Z,80.11
2018-02-15T09:21:23.526Z,80.04
2018-02-15T09:23:51.022Z,80.85
2018-02-15T09:26:18.520Z,80.58
2018-02-15T09:28:46.053Z,80.15
2018-02-15T09:31:13.543Z,80.16
2018-02-15T09:33:41.111Z,80.34
2018-02-15T09:36:08.652Z,79.83
2018-02-15T09:41:10.110Z,79.45
2018-02-15T09:43:37.634Z,79.25
2018-02-15T09:46:05.130Z,78.97
2018-02-15T09:48:32.630Z,78.10
2018-02-15T09:51:00.161Z,78.20
2018-02-15T09:53:27.663Z,78.55
2018-02-15T09:55:55.171Z,78.18
2018-02-15T09:58:22.690Z,77.72
2018-02-15T10:00:50.288Z,77.15
2018-02-15T10:03:17.798Z,76.38
2018-02-15T10:05:45.421Z,76.80
2018-02-15T10:08:12.958Z,76.92
2018-02-15T10:10:40.467Z,77.25
2018-02-15T10:13:08.085Z,76.03
2018-02-15T10:15:35.569Z,74.54
2018-02-15T10:18:03.060Z,73.43
2018-02-15T10:20:30.581Z,73.28
2018-02-15T10:22:58.072Z,72.71
2018-02-15T10:25:25.567Z,72.76
2018-02-15T10:27:53.138Z,72.55
2018-02-15T10:30:20.923Z,72.61
2018-02-15T10:32:48.451Z,73.41
2018-02-15T10:35:15.973Z,74.08
2018-02-15T10:37:43.579Z,73.21
2018-02-15T10:40:11.128Z,73.68
2018-02-15T10:42:38.693Z,73.05
2018-02-15T10:45:06.255Z,72.01
2018-02-15T10:47:33.771Z,72.68
2018-02-15T10:50:01.370Z,72.59
2018-02-15T10:52:28.865Z,72.86
2018-02-15T10:54:56.515Z,71.88
2018-02-15T10:57:24.007Z,71.41
2018-02-15T10:59:51.523Z,71.36
2018-02-15T11:02:22.860Z,71.67
2018-02-15T11:04:56.064Z,71.48
2018-02-15T11:07:23.589Z,71.28
2018-02-15T11:09:51.173Z,70.80
2018-02-15T11:12:18.666Z,70.44
2018-02-15T11:14:46.301Z,71.09
2018-02-15T11:17:13.795Z,71.54
2018-02-15T11:19:41.300Z,71.34
2018-02-15T11:22:08.854Z,70.31
2018-02-15T11:24:36.348Z,68.98
2018-02-15T11:27:03.884Z,68.86
2018-02-15T11:29:31.413Z,69.32
2018-02-15T11:31:58.911Z,69.79
2018-02-15T11:34:26.405Z,70.36
2018-02-15T11:36:53.929Z,70.49
2018-02-15T11:39:21.427Z,69.66
2018-02-15T11:41:49.266Z,69.47
2018-02-15T11:44:16.770Z,70.15
2018-02-15T11:46:44.263Z,69.72
2018-02-15T11:49:11.791Z,69.13
2018-02-15T11:51:39.386Z,68.87
2018-02-15T11:54:06.883Z,69.27
2018-02-15T11:56:34.585Z,68.86
2018-02-15T11:59:02.088Z,69.09
2018-02-15T12:01:29.589Z,68.14
2018-02-15T12:03:57.102Z,68.68
2018-02-15T12:06:24.591Z,68.41
2018-02-15T12:08:52.090Z,68.15
2018-02-15T12:11:19.598Z,68.01
2018-02-15T12:13:47.093Z,67.38
2018-02-15T12:16:14.594Z,67.77
2018-02-15T12:18:42.110Z,67.02
2018-02-15T12:21:09.640Z,66.94
2018-02-15T12:23:37.120Z,66.23
2018-02-15T12:26:04.655Z,65.59
2018-02-15T12:28:32.157Z,64.98
2018-02-15T12:30:59.693Z,65.42
2018-02-15T12:33:27.205Z,65.36
2018-02-15T12:35:54.699Z,65.43
2018-02-15T12:38:22.257Z,65.37
2018-02-15T12:40:49.909Z,65.01
2018-02-15T12:43:17.391Z,64.77
2018-02-15T12:45:44.940Z,65.45
2018-02-15T12:48:12.431Z,65.47
2018-02-15T12:50:39.990Z,65.68
2018-02-15T12:53:07.547Z,66.03
2018-02-15T12:55:35.029Z,66.61
2018-02-15T12:58:02.528Z,66.83
2018-02-15T13:00:30.124Z,67.50
2018-02-15T13:02:57.621Z,67.53
2018-02-15T13:05:25.123Z,68.00
2018-02-15T13:07:52.657Z,67.88
2018-02-15T13:10:20.263Z,67.23
2018-02-15T13:12:59.684Z,67.55
2018-02-15T13:15:39.102Z,67.42
2018-02-15T13:18:06.598Z,68.29
2018-02-15T13:20:34.109Z,68.54
2018-02-15T13:23:01.622Z,67.91
2018-02-15T13:25:29.119Z,67.55
2018-02-15T13:28:08.331Z,67.03
2018-02-15T13:30:35.855Z,67.01
2018-02-15T13:33:03.347Z,66.74
2018-02-15T13:35:30.964Z,67.30
2018-02-15T13:37:58.472Z,67.24
2018-02-15T13:40:25.985Z,67.60
2018-02-15T13:42:53.490Z,67.47
2018-02-15T13:45:20.990Z,67.31
2018-02-15T13:47:48.508Z,67.44
2018-02-15T13:50:15.999Z,67.37
2018-02-15T13:52:43.570Z,67.06
2018-02-15T13:55:11.130Z,67.03
2018-02-15T13:57:38.624Z,66.98
2018-02-15T14:00:06.116Z,66.91
2018-02-15T14:02:33.638Z,67.01
2018-02-15T14:05:01.133Z,67.51
2018-02-15T14:07:28.732Z,67.71
2018-02-15T14:09:56.279Z,67.21
2018-02-15T14:12:23.855Z,67.32
2018-02-15T14:14:51.345Z,67.36
2018-02-15T14:17:18.941Z,67.22
2018-02-15T14:19:46.436Z,67.34
2018-02-15T14:22:13.979Z,67.67
2018-02-15T14:24:41.487Z,67.88
2018-02-15T14:27:09.103Z,67.96
2018-02-15T14:29:36.586Z,68.15
2018-02-15T14:32:04.099Z,67.98
2018-02-15T14:34:31.640Z,67.91
2018-02-15T14:36:59.133Z,67.79
2018-02-15T14:39:26.680Z,67.82
2018-02-15T14:41:54.189Z,67.62
2018-02-15T14:44:21.681Z,67.77
2018-02-15T14:46:49.261Z,68.00
2018-02-15T14:49:16.758Z,67.78
2018-02-15T14:51:44.256Z,67.57
2018-02-15T14:54:11.774Z,67.55
2018-02-15T14:56:39.261Z,67.66
2018-02-15T14:59:06.763Z,67.49
2018-02-15T15:01:34.277Z,67.76
2018-02-15T15:04:01.806Z,67.96
2018-02-15T15:06:29.355Z,67.94
2018-02-15T15:08:56.885Z,67.99
2018-02-15T15:11:24.382Z,67.92
2018-02-15T15:13:51.883Z,67.77
2018-02-15T15:16:19.458Z,67.59
2018-02-15T15:18:46.987Z,67.54
2018-02-15T15:21:14.504Z,67.66
2018-02-15T15:23:42.013Z,67.44
2018-02-15T15:26:09.594Z,66.88
2018-02-15T15:28:37.090Z,66.48
2018-02-15T15:31:04.584Z,66.48
2018-02-15T15:33:32.190Z,65.17
2018-02-15T15:35:59.685Z,65.05
2018-02-15T15:38:27.175Z,63.65
2018-02-15T15:40:54.686Z,60.79
2018-02-15T15:43:22.190Z,61.81
2018-02-15T15:45:49.678Z,59.85
2018-02-15T15:48:17.208Z,59.12
2018-02-15T15:50:44.710Z,59.77
2018-02-15T15:53:12.211Z,59.87
2018-02-15T15:55:39.728Z,61.24
2018-02-15T15:58:07.224Z,63.77
2018-02-15T16:00:34.729Z,64.21
2018-02-15T16:03:02.239Z,64.52
2018-02-15T16:05:29.743Z,62.90
2018-02-15T16:07:57.391Z,63.70
2018-02-15T16:10:24.965Z,62.36
2018-02-15T16:12:52.458Z,60.99
2018-02-15T16:15:19.991Z,60.00
2018-02-15T16:17:47.486Z,59.88
2018-02-15T16:20:15.083Z,59.77
2018-02-15T16:22:42.603Z,59.72
2018-02-15T16:25:10.300Z,59.71
2018-02-15T16:27:37.863Z,59.74
2018-02-15T16:30:05.425Z,59.60
2018-02-15T16:32:32.915Z,59.14
2018-02-15T16:35:00.432Z,59.17
2018-02-15T16:37:27.949Z,59.45
2018-02-15T16:39:55.446Z,59.70
2018-02-15T16:42:22.943Z,59.61
2018-02-15T16:44:50.467Z,59.87
2018-02-15T16:47:17.959Z,59.41
2018-02-15T16:49:45.455Z,59.66
2018-02-15T16:52:12.961Z,59.94
2018-02-15T16:54:40.451Z,59.38
2018-02-15T16:57:08.267Z,59.78
2018-02-15T16:59:35.767Z,59.33
2018-02-15T17:02:03.278Z,59.83
2018-02-15T17:04:30.779Z,59.86
2018-02-15T17:06:58.268Z,59.80
2018-02-15T17:09:25.856Z,59.26
2018-02-15T17:11:53.344Z,59.43
2018-02-15T17:14:20.849Z,59.32
2018-02-15T17:16:48.363Z,59.60
2018-02-15T17:19:15.850Z,59.30
2018-02-15T17:21:43.362Z,59.25
2018-02-15T17:24:10.869Z,59.06
2018-02-15T17:26:38.366Z,59.03
2018-02-15T17:29:05.930Z,58.65
2018-02-15T17:31:33.421Z,58.78
2018-02-15T17:34:00.912Z,58.85
2018-02-15T17:36:28.428Z,58.91
2018-02-15T17:38:55.941Z,59.04
2018-02-15T17:41:23.437Z,59.13
2018-02-15T17:43:50.969Z,58.92
2018-02-15T17:46:18.458Z,59.07
2018-02-15T17:48:45.952Z,59.23
2018-02-15T17:51:13.479Z,59.67
2018-02-15T17:53:40.998Z,60.03
2018-02-15T17:56:08.492Z,60.12
2018-02-15T17:58:36.120Z,60.12
2018-02-15T18:01:03.618Z,60.20
2018-02-15T18:03:31.120Z,60.97
2018-02-15T18:05:58.713Z,61.74
2018-02-15T18:08:26.208Z,62.05
2018-02-15T18:10:53.695Z,62.35
2018-02-15T18:13:21.223Z,62.96
2018-02-15T18:15:48.713Z,63.51
2018-02-15T18:18:16.209Z,64.33
2018-02-15T18:20:43.855Z,65.04
2018-02-15T18:23:11.371Z,66.08
2018-02-15T18:25:39.188Z,66.73
2018-02-15T18:28:06.750Z,67.01
2018-02-15T18:30:34.423Z,67.27
2018-02-15T18:33:01.931Z,67.28
2018-02-15T18:35:29.832Z,67.29
2018-02-15T18:37:57.914Z,67.29
2018-02-15T18:40:25.435Z,67.44
2018-02-15T18:42:53.553Z,66.72
2018-02-15T18:45:21.051Z,66.71
2018-02-15T18:47:48.582Z,66.75
2018-02-15T18:50:16.430Z,66.58
2018-02-15T18:52:44.002Z,66.59
2018-02-15T18:55:11.522Z,66.51
2018-02-15T18:57:39.014Z,66.52
2018-02-15T19:00:06.896Z,66.59
2018-02-15T19:02:34.574Z,66.68
2018-02-15T19:05:02.971Z,67.01
2018-02-15T19:07:30.495Z,67.06
2018-02-15T19:09:58.007Z,67.71
2018-02-15T19:12:25.567Z,68.32
2018-02-15T19:14:53.076Z,68.85
2018-02-15T19:17:20.582Z,69.25
2018-02-15T19:19:48.076Z,69.70
2018-02-15T19:22:15.612Z,69.90
2018-02-15T19:24:43.170Z,70.35
2018-02-15T19:27:10.664Z,70.38
2018-02-15T19:29:38.984Z,70.58
2018-02-15T19:32:06.500Z,70.95
2018-02-15T19:34:33.994Z,70.94
2018-02-15T19:37:01.584Z,71.00
2018-02-15T19:39:29.147Z,70.87
2018-02-15T19:41:56.631Z,70.80
2018-02-15T19:44:24.159Z,70.44
2018-02-15T19:46:51.653Z,70.64
2018-02-15T19:49:19.141Z,70.97
2018-02-15T19:51:46.660Z,71.19
2018-02-15T19:54:14.162Z,71.56
2018-02-15T19:56:41.760Z,71.93
2018-02-15T19:59:09.290Z,72.54
2018-02-15T20:01:36.875Z,72.96
2018-02-15T20:04:04.370Z,72.91
2018-02-15T20:06:31.884Z,72.91
2018-02-15T20:08:59.555Z,73.04
2018-02-15T20:11:27.050Z,73.20
2018-02-15T20:13:54.651Z,72.97
2018-02-15T21:08:23.293Z,79.83
2018-02-15T21:10:50.794Z,79.88
2018-02-15T21:13:18.284Z,80.04
2018-02-15T21:15:45.859Z,80.28
2018-02-15T21:18:13.358Z,80.79
2018-02-15T21:20:40.881Z,81.39
2018-02-15T21:23:08.396Z,81.75
2018-02-15T21:25:35.906Z,82.54
2018-02-15T21:28:03.403Z,83.22
2018-02-15T21:30:31.003Z,83.25
2018-02-15T21:32:58.508Z,83.65
2018-02-15T21:35:26.047Z,83.91
2018-02-15T21:37:53.544Z,84.04
2018-02-15T21:40:21.044Z,83.87
2018-02-15T21:42:48.558Z,83.91
2018-02-15T21:45:16.053Z,84.04
2018-02-15T21:47:43.543Z,83.96
2018-02-15T21:50:11.176Z,83.86
2018-02-15T21:52:38.675Z,83.83
2018-02-15T21:55:06.172Z,83.63
2018-02-15T21:57:33.695Z,83.67
2018-02-15T22:00:01.265Z,83.64
2018-02-15T22:02:28.751Z,83.21
2018-02-15T22:04:56.257Z,82.91
2018-02-15T22:07:23.762Z,82.79
2018-02-15T22:09:51.296Z,82.96
2018-02-15T22:12:18.783Z,82.37
2018-02-15T22:14:46.271Z,82.85
2018-02-15T22:17:13.828Z,82.91
2018-02-15T22:19:41.334Z,83.01
2018-02-15T22:22:08.846Z,83.10
2018-02-15T22:24:36.314Z,83.96
2018-02-15T22:27:03.792Z,84.82
2018-02-15T22:29:31.338Z,85.84
2018-02-15T22:31:58.794Z,86.82
2018-02-15T22:34:26.286Z,87.39
2018-02-15T22:36:53.810Z,88.06
2018-02-15T22:39:21.277Z,88.19
2018-02-15T22:41:48.752Z,88.33
2018-02-15T22:44:16.233Z,88.40
2018-02-15T22:46:43.690Z,88.38
2018-02-15T22:49:11.150Z,88.45
2018-02-15T22:51:38.630Z,88.64
2018-02-15T22:54:06.091Z,88.71
2018-02-15T22:56:33.549Z,88.79
2018-02-15T22:59:01.033Z,88.49
2018-02-15T23:01:28.503Z,88.59
2018-02-15T23:03:55.959Z,88.58
2018-02-15T23:06:23.425Z,88.38
2018-02-15T23:08:50.916Z,88.20
2018-02-15T23:11:18.381Z,88.34
2018-02-15T23:13:45.847Z,88.12
2018-02-15T23:16:13.321Z,87.96
2018-02-15T23:18:40.852Z,87.62
2018-02-15T23:21:08.297Z,87.49
2018-02-15T23:23:35.827Z,87.37
2018-02-15T23:26:03.277Z,87.33
2018-02-15T23:28:30.897Z,87.06
2018-02-15T23:30:58.349Z,86.60
2018-02-15T23:33:25.800Z,86.41
2018-02-15T23:35:53.322Z,86.34
2018-02-15T23:38:20.789Z,86.35
2018-02-15T23:40:48.285Z,86.23
2018-02-15T23:43:15.742Z,86.00
2018-02-15T23:45:43.210Z,85.85
2018-02-15T23:48:10.686Z,85.75
2018-02-15T23:50:38.157Z,85.90
2018-02-15T23:53:05.611Z,85.76
2018-02-15T23:55:33.092Z,85.77
2018-02-15T23:58:00.558Z,86.26
